sensor_id;sensor_type;location;lat;lon;timestamp;P1;durP1;ratioP1;P2;durP2;ratioP2
142;SDS011;63667;49.046;8.468;2022-10-16T00:02:10;3.17;;;2.93;;
142;SDS011;63667;49.046;8.468;2022-10-16T00:04:36;3.97;;;2.80;;
142;SDS011;63667;49.046;8.468;2022-10-16T00:07:03;8.30;;;3.30;;
142;SDS011;63667;49.046;8.468;2022-10-16T00:09:29;9.33;;;2.70;;
142;SDS011;63667;49.046;8.468;2022-10-16T00:11:56;3.07;;;2.70;;
142;SDS011;63667;49.046;8.468;2022-10-16T00:14:22;6.97;;;3.50;;
142;SDS011;63667;49.046;8.468;2022-10-16T00:16:48;6.07;;;2.80;;
142;SDS011;63667;49.046;8.468;2022-10-16T00:19:14;5.10;;;2.97;;
142;SDS011;63667;49.046;8.468;2022-10-16T00:21:40;5.60;;;3.23;;
142;SDS011;63667;49.046;8.468;2022-10-16T00:24:08;7.13;;;2.90;;
142;SDS011;63667;49.046;8.468;2022-10-16T00:26:35;2.90;;;2.70;;
142;SDS011;63667;49.046;8.468;2022-10-16T00:29:02;5.13;;;2.73;;
142;SDS011;63667;49.046;8.468;2022-10-16T00:31:30;11.63;;;3.00;;
142;SDS011;63667;49.046;8.468;2022-10-16T00:33:56;2.90;;;2.70;;
142;SDS011;63667;49.046;8.468;2022-10-16T00:36:23;3.60;;;2.90;;
142;SDS011;63667;49.046;8.468;2022-10-16T00:38:54;4.23;;;3.00;;
142;SDS011;63667;49.046;8.468;2022-10-16T00:41:23;10.93;;;3.57;;
142;SDS011;63667;49.046;8.468;2022-10-16T00:46:22;9.50;;;2.87;;
142;SDS011;63667;49.046;8.468;2022-10-16T00:49:07;7.80;;;2.70;;
142;SDS011;63667;49.046;8.468;2022-10-16T00:51:40;4.47;;;2.83;;
142;SDS011;63667;49.046;8.468;2022-10-16T00:54:12;4.27;;;2.63;;
142;SDS011;63667;49.046;8.468;2022-10-16T00:56:50;4.50;;;3.00;;
142;SDS011;63667;49.046;8.468;2022-10-16T00:59:27;3.23;;;2.90;;
142;SDS011;63667;49.046;8.468;2022-10-16T01:01:56;12.10;;;2.90;;
142;SDS011;63667;49.046;8.468;2022-10-16T01:04:24;3.63;;;3.40;;
142;SDS011;63667;49.046;8.468;2022-10-16T01:12:38;7.33;;;3.57;;
142;SDS011;63667;49.046;8.468;2022-10-16T01:17:57;4.07;;;2.97;;
142;SDS011;63667;49.046;8.468;2022-10-16T01:20:33;5.90;;;3.20;;
142;SDS011;63667;49.046;8.468;2022-10-16T01:25:51;5.03;;;3.30;;
142;SDS011;63667;49.046;8.468;2022-10-16T01:28:40;4.37;;;3.00;;
142;SDS011;63667;49.046;8.468;2022-10-16T01:31:22;6.33;;;2.97;;
142;SDS011;63667;49.046;8.468;2022-10-16T01:34:57;6.53;;;2.93;;
142;SDS011;63667;49.046;8.468;2022-10-16T01:37:04;6.97;;;3.13;;
142;SDS011;63667;49.046;8.468;2022-10-16T01:39:35;5.43;;;3.00;;
142;SDS011;63667;49.046;8.468;2022-10-16T01:42:07;8.03;;;2.80;;
142;SDS011;63667;49.046;8.468;2022-10-16T01:44:38;7.43;;;3.10;;
142;SDS011;63667;49.046;8.468;2022-10-16T01:47:07;4.50;;;3.00;;
142;SDS011;63667;49.046;8.468;2022-10-16T01:49:36;9.30;;;2.87;;
142;SDS011;63667;49.046;8.468;2022-10-16T01:52:05;5.50;;;2.57;;
142;SDS011;63667;49.046;8.468;2022-10-16T01:54:35;10.03;;;2.90;;
142;SDS011;63667;49.046;8.468;2022-10-16T01:57:04;6.50;;;3.00;;
142;SDS011;63667;49.046;8.468;2022-10-16T01:59:33;7.00;;;2.60;;
142;SDS011;63667;49.046;8.468;2022-10-16T02:02:05;5.90;;;3.00;;
142;SDS011;63667;49.046;8.468;2022-10-16T02:04:38;7.80;;;2.80;;
142;SDS011;63667;49.046;8.468;2022-10-16T02:07:08;5.80;;;2.90;;
142;SDS011;63667;49.046;8.468;2022-10-16T02:09:35;15.23;;;2.90;;
142;SDS011;63667;49.046;8.468;2022-10-16T02:12:07;4.30;;;2.70;;
142;SDS011;63667;49.046;8.468;2022-10-16T02:14:55;3.90;;;2.60;;
142;SDS011;63667;49.046;8.468;2022-10-16T02:17:21;8.53;;;3.13;;
142;SDS011;63667;49.046;8.468;2022-10-16T02:19:48;7.93;;;3.57;;
142;SDS011;63667;49.046;8.468;2022-10-16T02:30:46;5.30;;;2.80;;
142;SDS011;63667;49.046;8.468;2022-10-16T02:33:17;3.23;;;2.80;;
142;SDS011;63667;49.046;8.468;2022-10-16T02:35:46;5.83;;;3.43;;
142;SDS011;63667;49.046;8.468;2022-10-16T02:38:16;5.33;;;3.00;;
142;SDS011;63667;49.046;8.468;2022-10-16T02:40:43;8.40;;;3.30;;
142;SDS011;63667;49.046;8.468;2022-10-16T02:43:10;7.33;;;3.07;;
142;SDS011;63667;49.046;8.468;2022-10-16T02:45:36;10.10;;;3.20;;
142;SDS011;63667;49.046;8.468;2022-10-16T02:48:03;6.00;;;3.37;;
142;SDS011;63667;49.046;8.468;2022-10-16T02:50:30;3.80;;;3.37;;
142;SDS011;63667;49.046;8.468;2022-10-16T02:52:56;6.73;;;3.13;;
142;SDS011;63667;49.046;8.468;2022-10-16T02:55:22;8.03;;;3.10;;
142;SDS011;63667;49.046;8.468;2022-10-16T02:57:48;5.03;;;3.00;;
142;SDS011;63667;49.046;8.468;2022-10-16T03:00:15;3.20;;;2.70;;
142;SDS011;63667;49.046;8.468;2022-10-16T03:02:42;4.67;;;2.93;;
142;SDS011;63667;49.046;8.468;2022-10-16T03:05:09;4.10;;;2.90;;
142;SDS011;63667;49.046;8.468;2022-10-16T03:07:36;7.30;;;3.30;;
142;SDS011;63667;49.046;8.468;2022-10-16T03:10:02;4.53;;;3.10;;
142;SDS011;63667;49.046;8.468;2022-10-16T03:12:29;3.10;;;2.93;;
142;SDS011;63667;49.046;8.468;2022-10-16T03:14:55;10.90;;;3.17;;
142;SDS011;63667;49.046;8.468;2022-10-16T03:17:22;4.00;;;3.30;;
142;SDS011;63667;49.046;8.468;2022-10-16T03:19:48;10.97;;;3.03;;
142;SDS011;63667;49.046;8.468;2022-10-16T03:22:15;4.07;;;2.90;;
142;SDS011;63667;49.046;8.468;2022-10-16T03:24:41;4.87;;;2.93;;
142;SDS011;63667;49.046;8.468;2022-10-16T03:27:08;7.27;;;3.33;;
142;SDS011;63667;49.046;8.468;2022-10-16T03:29:34;7.40;;;3.17;;
142;SDS011;63667;49.046;8.468;2022-10-16T03:32:00;9.47;;;3.13;;
142;SDS011;63667;49.046;8.468;2022-10-16T03:34:26;15.10;;;3.10;;
142;SDS011;63667;49.046;8.468;2022-10-16T03:36:53;4.20;;;3.20;;
142;SDS011;63667;49.046;8.468;2022-10-16T03:39:19;5.93;;;3.40;;
142;SDS011;63667;49.046;8.468;2022-10-16T03:41:45;10.33;;;2.87;;
142;SDS011;63667;49.046;8.468;2022-10-16T03:44:12;11.43;;;3.70;;
142;SDS011;63667;49.046;8.468;2022-10-16T03:46:38;11.23;;;3.23;;
142;SDS011;63667;49.046;8.468;2022-10-16T03:49:04;5.17;;;3.10;;
142;SDS011;63667;49.046;8.468;2022-10-16T03:51:31;4.40;;;2.67;;
142;SDS011;63667;49.046;8.468;2022-10-16T03:53:58;9.47;;;2.70;;
142;SDS011;63667;49.046;8.468;2022-10-16T03:56:24;6.07;;;2.50;;
142;SDS011;63667;49.046;8.468;2022-10-16T03:58:50;5.13;;;2.50;;
142;SDS011;63667;49.046;8.468;2022-10-16T04:01:16;7.00;;;2.87;;
142;SDS011;63667;49.046;8.468;2022-10-16T04:03:42;6.73;;;2.90;;
142;SDS011;63667;49.046;8.468;2022-10-16T04:06:09;3.57;;;2.30;;
142;SDS011;63667;49.046;8.468;2022-10-16T04:08:35;4.27;;;2.90;;
142;SDS011;63667;49.046;8.468;2022-10-16T04:11:02;5.23;;;2.70;;
142;SDS011;63667;49.046;8.468;2022-10-16T04:13:28;4.97;;;2.80;;
142;SDS011;63667;49.046;8.468;2022-10-16T04:15:55;8.43;;;2.80;;
142;SDS011;63667;49.046;8.468;2022-10-16T04:18:21;4.17;;;2.77;;
142;SDS011;63667;49.046;8.468;2022-10-16T04:20:47;4.20;;;2.70;;
142;SDS011;63667;49.046;8.468;2022-10-16T04:23:13;2.80;;;2.70;;
142;SDS011;63667;49.046;8.468;2022-10-16T04:25:40;3.93;;;2.77;;
142;SDS011;63667;49.046;8.468;2022-10-16T04:28:06;3.47;;;2.90;;
142;SDS011;63667;49.046;8.468;2022-10-16T04:30:33;4.10;;;3.00;;
142;SDS011;63667;49.046;8.468;2022-10-16T04:32:59;8.13;;;2.60;;
142;SDS011;63667;49.046;8.468;2022-10-16T04:35:25;10.83;;;3.50;;
142;SDS011;63667;49.046;8.468;2022-10-16T04:37:51;15.77;;;3.50;;
142;SDS011;63667;49.046;8.468;2022-10-16T04:40:17;12.03;;;3.50;;
142;SDS011;63667;49.046;8.468;2022-10-16T04:42:43;6.50;;;3.50;;
142;SDS011;63667;49.046;8.468;2022-10-16T04:45:10;5.60;;;3.43;;
142;SDS011;63667;49.046;8.468;2022-10-16T04:47:36;7.90;;;3.27;;
142;SDS011;63667;49.046;8.468;2022-10-16T04:50:02;6.57;;;3.20;;
142;SDS011;63667;49.046;8.468;2022-10-16T04:52:29;8.70;;;2.63;;
142;SDS011;63667;49.046;8.468;2022-10-16T04:54:57;3.27;;;2.97;;
142;SDS011;63667;49.046;8.468;2022-10-16T04:57:27;15.10;;;3.27;;
142;SDS011;63667;49.046;8.468;2022-10-16T04:59:53;9.80;;;2.87;;
142;SDS011;63667;49.046;8.468;2022-10-16T05:02:19;6.87;;;3.10;;
142;SDS011;63667;49.046;8.468;2022-10-16T05:04:46;6.43;;;2.90;;
142;SDS011;63667;49.046;8.468;2022-10-16T05:07:12;19.60;;;2.83;;
142;SDS011;63667;49.046;8.468;2022-10-16T05:09:39;5.50;;;2.53;;
142;SDS011;63667;49.046;8.468;2022-10-16T05:12:06;7.80;;;2.70;;
142;SDS011;63667;49.046;8.468;2022-10-16T05:14:32;9.77;;;2.90;;
142;SDS011;63667;49.046;8.468;2022-10-16T05:16:59;4.50;;;2.90;;
142;SDS011;63667;49.046;8.468;2022-10-16T05:19:25;11.17;;;3.20;;
142;SDS011;63667;49.046;8.468;2022-10-16T05:21:52;5.80;;;3.10;;
142;SDS011;63667;49.046;8.468;2022-10-16T05:24:18;4.40;;;2.60;;
142;SDS011;63667;49.046;8.468;2022-10-16T05:26:44;6.90;;;3.40;;
142;SDS011;63667;49.046;8.468;2022-10-16T05:29:10;7.30;;;3.43;;
142;SDS011;63667;49.046;8.468;2022-10-16T05:31:36;8.83;;;3.10;;
142;SDS011;63667;49.046;8.468;2022-10-16T05:34:03;7.93;;;2.87;;
142;SDS011;63667;49.046;8.468;2022-10-16T05:36:29;8.70;;;3.43;;
142;SDS011;63667;49.046;8.468;2022-10-16T05:38:55;13.27;;;2.90;;
142;SDS011;63667;49.046;8.468;2022-10-16T05:41:21;6.00;;;3.27;;
142;SDS011;63667;49.046;8.468;2022-10-16T05:43:49;3.80;;;3.10;;
142;SDS011;63667;49.046;8.468;2022-10-16T05:46:15;13.53;;;3.70;;
142;SDS011;63667;49.046;8.468;2022-10-16T05:48:42;13.07;;;3.10;;
142;SDS011;63667;49.046;8.468;2022-10-16T05:51:09;6.97;;;3.60;;
142;SDS011;63667;49.046;8.468;2022-10-16T05:53:37;8.30;;;3.37;;
142;SDS011;63667;49.046;8.468;2022-10-16T05:56:04;5.57;;;3.30;;
142;SDS011;63667;49.046;8.468;2022-10-16T05:58:32;6.20;;;3.83;;
142;SDS011;63667;49.046;8.468;2022-10-16T06:01:04;8.23;;;3.10;;
142;SDS011;63667;49.046;8.468;2022-10-16T06:03:38;19.47;;;3.30;;
142;SDS011;63667;49.046;8.468;2022-10-16T06:08:36;12.87;;;3.50;;
142;SDS011;63667;49.046;8.468;2022-10-16T06:11:05;4.60;;;2.80;;
142;SDS011;63667;49.046;8.468;2022-10-16T06:13:32;11.20;;;2.80;;
142;SDS011;63667;49.046;8.468;2022-10-16T06:15:59;5.07;;;2.73;;
142;SDS011;63667;49.046;8.468;2022-10-16T06:18:27;3.20;;;2.73;;
142;SDS011;63667;49.046;8.468;2022-10-16T06:20:54;9.10;;;3.03;;
142;SDS011;63667;49.046;8.468;2022-10-16T06:23:20;15.73;;;3.00;;
142;SDS011;63667;49.046;8.468;2022-10-16T06:25:47;3.80;;;3.27;;
142;SDS011;63667;49.046;8.468;2022-10-16T06:28:14;5.47;;;3.00;;
142;SDS011;63667;49.046;8.468;2022-10-16T06:30:40;3.93;;;2.87;;
142;SDS011;63667;49.046;8.468;2022-10-16T06:33:12;7.93;;;3.40;;
142;SDS011;63667;49.046;8.468;2022-10-16T06:35:39;9.30;;;3.40;;
142;SDS011;63667;49.046;8.468;2022-10-16T06:38:05;7.47;;;3.30;;
142;SDS011;63667;49.046;8.468;2022-10-16T06:40:31;5.60;;;2.67;;
142;SDS011;63667;49.046;8.468;2022-10-16T06:43:01;8.03;;;2.90;;
142;SDS011;63667;49.046;8.468;2022-10-16T06:45:27;5.60;;;3.17;;
142;SDS011;63667;49.046;8.468;2022-10-16T06:47:54;6.00;;;3.13;;
142;SDS011;63667;49.046;8.468;2022-10-16T06:50:20;7.83;;;3.00;;
142;SDS011;63667;49.046;8.468;2022-10-16T06:52:46;7.57;;;3.03;;
142;SDS011;63667;49.046;8.468;2022-10-16T06:55:12;6.13;;;3.17;;
142;SDS011;63667;49.046;8.468;2022-10-16T06:57:38;4.90;;;2.73;;
142;SDS011;63667;49.046;8.468;2022-10-16T07:00:06;4.30;;;3.00;;
142;SDS011;63667;49.046;8.468;2022-10-16T07:02:32;3.90;;;2.67;;
142;SDS011;63667;49.046;8.468;2022-10-16T07:04:58;6.80;;;3.57;;
142;SDS011;63667;49.046;8.468;2022-10-16T07:07:24;3.90;;;2.87;;
142;SDS011;63667;49.046;8.468;2022-10-16T07:09:52;6.97;;;3.10;;
142;SDS011;63667;49.046;8.468;2022-10-16T07:12:18;10.80;;;2.70;;
142;SDS011;63667;49.046;8.468;2022-10-16T07:14:44;5.20;;;3.00;;
142;SDS011;63667;49.046;8.468;2022-10-16T07:17:13;3.63;;;3.00;;
142;SDS011;63667;49.046;8.468;2022-10-16T07:19:39;3.20;;;2.70;;
142;SDS011;63667;49.046;8.468;2022-10-16T07:22:06;3.13;;;3.00;;
142;SDS011;63667;49.046;8.468;2022-10-16T07:24:32;9.63;;;3.13;;
142;SDS011;63667;49.046;8.468;2022-10-16T07:26:58;9.03;;;3.07;;
142;SDS011;63667;49.046;8.468;2022-10-16T07:29:24;3.40;;;3.20;;
142;SDS011;63667;49.046;8.468;2022-10-16T07:31:50;3.70;;;3.13;;
142;SDS011;63667;49.046;8.468;2022-10-16T07:34:17;3.90;;;2.77;;
142;SDS011;63667;49.046;8.468;2022-10-16T07:36:44;8.70;;;3.13;;
142;SDS011;63667;49.046;8.468;2022-10-16T07:39:12;5.63;;;2.80;;
142;SDS011;63667;49.046;8.468;2022-10-16T07:41:39;10.23;;;3.00;;
142;SDS011;63667;49.046;8.468;2022-10-16T07:44:05;4.47;;;3.10;;
142;SDS011;63667;49.046;8.468;2022-10-16T07:46:31;8.17;;;2.80;;
142;SDS011;63667;49.046;8.468;2022-10-16T07:48:59;10.83;;;2.93;;
142;SDS011;63667;49.046;8.468;2022-10-16T07:51:25;8.77;;;3.23;;
142;SDS011;63667;49.046;8.468;2022-10-16T07:53:52;7.60;;;3.33;;
142;SDS011;63667;49.046;8.468;2022-10-16T07:56:19;10.97;;;4.10;;
142;SDS011;63667;49.046;8.468;2022-10-16T07:58:47;6.77;;;3.10;;
142;SDS011;63667;49.046;8.468;2022-10-16T08:01:15;8.97;;;3.60;;
142;SDS011;63667;49.046;8.468;2022-10-16T08:03:46;3.93;;;3.20;;
142;SDS011;63667;49.046;8.468;2022-10-16T08:06:14;5.33;;;2.93;;
142;SDS011;63667;49.046;8.468;2022-10-16T08:08:41;7.50;;;3.03;;
142;SDS011;63667;49.046;8.468;2022-10-16T08:11:08;8.90;;;3.20;;
142;SDS011;63667;49.046;8.468;2022-10-16T08:13:34;5.10;;;3.10;;
142;SDS011;63667;49.046;8.468;2022-10-16T08:16:00;5.53;;;2.97;;
142;SDS011;63667;49.046;8.468;2022-10-16T08:18:27;4.57;;;2.70;;
142;SDS011;63667;49.046;8.468;2022-10-16T08:20:57;12.33;;;3.00;;
142;SDS011;63667;49.046;8.468;2022-10-16T08:23:25;4.17;;;3.00;;
142;SDS011;63667;49.046;8.468;2022-10-16T08:25:53;10.03;;;2.73;;
142;SDS011;63667;49.046;8.468;2022-10-16T08:28:20;6.70;;;3.03;;
142;SDS011;63667;49.046;8.468;2022-10-16T08:30:48;4.90;;;2.97;;
142;SDS011;63667;49.046;8.468;2022-10-16T08:33:15;8.50;;;2.77;;
142;SDS011;63667;49.046;8.468;2022-10-16T08:35:41;3.17;;;2.80;;
142;SDS011;63667;49.046;8.468;2022-10-16T08:38:07;13.90;;;3.10;;
142;SDS011;63667;49.046;8.468;2022-10-16T08:40:35;8.70;;;2.80;;
142;SDS011;63667;49.046;8.468;2022-10-16T08:49:01;3.27;;;3.10;;
142;SDS011;63667;49.046;8.468;2022-10-16T08:51:31;8.93;;;3.10;;
142;SDS011;63667;49.046;8.468;2022-10-16T08:54:04;5.97;;;3.27;;
142;SDS011;63667;49.046;8.468;2022-10-16T08:56:34;4.27;;;3.07;;
142;SDS011;63667;49.046;8.468;2022-10-16T08:59:00;7.53;;;3.07;;
142;SDS011;63667;49.046;8.468;2022-10-16T09:01:37;4.53;;;3.50;;
142;SDS011;63667;49.046;8.468;2022-10-16T09:06:57;11.73;;;3.70;;
142;SDS011;63667;49.046;8.468;2022-10-16T09:12:33;9.03;;;3.60;;
142;SDS011;63667;49.046;8.468;2022-10-16T09:20:51;9.80;;;3.63;;
142;SDS011;63667;49.046;8.468;2022-10-16T09:23:28;8.23;;;3.83;;
142;SDS011;63667;49.046;8.468;2022-10-16T09:25:56;8.87;;;3.60;;
142;SDS011;63667;49.046;8.468;2022-10-16T09:28:24;29.77;;;3.93;;
142;SDS011;63667;49.046;8.468;2022-10-16T09:30:51;11.50;;;3.23;;
142;SDS011;63667;49.046;8.468;2022-10-16T09:33:18;8.37;;;3.03;;
142;SDS011;63667;49.046;8.468;2022-10-16T09:35:48;4.00;;;3.33;;
142;SDS011;63667;49.046;8.468;2022-10-16T09:40:51;6.80;;;4.10;;
142;SDS011;63667;49.046;8.468;2022-10-16T09:43:25;9.53;;;3.90;;
142;SDS011;63667;49.046;8.468;2022-10-16T09:46:05;8.37;;;3.93;;
142;SDS011;63667;49.046;8.468;2022-10-16T09:48:37;9.33;;;3.50;;
142;SDS011;63667;49.046;8.468;2022-10-16T09:54:14;7.40;;;3.00;;
142;SDS011;63667;49.046;8.468;2022-10-16T09:56:45;5.33;;;3.43;;
142;SDS011;63667;49.046;8.468;2022-10-16T09:59:15;4.90;;;3.03;;
142;SDS011;63667;49.046;8.468;2022-10-16T10:04:20;3.37;;;3.00;;
142;SDS011;63667;49.046;8.468;2022-10-16T10:06:49;7.60;;;3.30;;
142;SDS011;63667;49.046;8.468;2022-10-16T10:11:48;7.23;;;3.33;;
142;SDS011;63667;49.046;8.468;2022-10-16T10:14:25;9.80;;;3.27;;
142;SDS011;63667;49.046;8.468;2022-10-16T10:17:26;7.90;;;3.73;;
142;SDS011;63667;49.046;8.468;2022-10-16T10:19:57;5.60;;;3.13;;
142;SDS011;63667;49.046;8.468;2022-10-16T10:22:42;6.77;;;3.30;;
142;SDS011;63667;49.046;8.468;2022-10-16T10:27:54;11.83;;;3.87;;
142;SDS011;63667;49.046;8.468;2022-10-16T10:36:33;5.87;;;3.00;;
142;SDS011;63667;49.046;8.468;2022-10-16T10:39:04;6.33;;;3.40;;
142;SDS011;63667;49.046;8.468;2022-10-16T10:49:45;6.23;;;3.13;;
142;SDS011;63667;49.046;8.468;2022-10-16T10:52:36;11.77;;;3.47;;
142;SDS011;63667;49.046;8.468;2022-10-16T11:09:18;8.37;;;3.90;;
142;SDS011;63667;49.046;8.468;2022-10-16T11:12:09;4.70;;;3.33;;
142;SDS011;63667;49.046;8.468;2022-10-16T11:14:50;4.97;;;3.83;;
142;SDS011;63667;49.046;8.468;2022-10-16T11:17:45;10.10;;;3.57;;
142;SDS011;63667;49.046;8.468;2022-10-16T11:20:24;11.27;;;3.70;;
142;SDS011;63667;49.046;8.468;2022-10-16T11:22:54;7.17;;;3.67;;
142;SDS011;63667;49.046;8.468;2022-10-16T11:25:29;12.43;;;3.33;;
142;SDS011;63667;49.046;8.468;2022-10-16T11:31:03;8.40;;;3.57;;
142;SDS011;63667;49.046;8.468;2022-10-16T11:33:51;5.07;;;3.30;;
142;SDS011;63667;49.046;8.468;2022-10-16T11:42:13;4.50;;;2.60;;
142;SDS011;63667;49.046;8.468;2022-10-16T11:48:00;10.20;;;3.10;;
142;SDS011;63667;49.046;8.468;2022-10-16T11:50:34;6.30;;;3.50;;
142;SDS011;63667;49.046;8.468;2022-10-16T11:56:11;8.50;;;3.37;;
142;SDS011;63667;49.046;8.468;2022-10-16T11:58:53;5.37;;;3.13;;
142;SDS011;63667;49.046;8.468;2022-10-16T12:01:38;9.10;;;3.10;;
142;SDS011;63667;49.046;8.468;2022-10-16T12:07:06;3.60;;;2.87;;
142;SDS011;63667;49.046;8.468;2022-10-16T12:09:31;6.43;;;3.37;;
142;SDS011;63667;49.046;8.468;2022-10-16T12:12:00;7.20;;;3.43;;
142;SDS011;63667;49.046;8.468;2022-10-16T12:17:01;3.23;;;3.10;;
142;SDS011;63667;49.046;8.468;2022-10-16T12:25:20;6.20;;;3.20;;
142;SDS011;63667;49.046;8.468;2022-10-16T12:30:36;6.33;;;3.30;;
142;SDS011;63667;49.046;8.468;2022-10-16T12:33:06;6.00;;;3.27;;
142;SDS011;63667;49.046;8.468;2022-10-16T12:35:48;3.73;;;3.23;;
142;SDS011;63667;49.046;8.468;2022-10-16T12:46:04;10.10;;;3.40;;
142;SDS011;63667;49.046;8.468;2022-10-16T12:48:46;4.40;;;3.40;;
142;SDS011;63667;49.046;8.468;2022-10-16T12:51:22;7.73;;;3.67;;
142;SDS011;63667;49.046;8.468;2022-10-16T12:53:58;3.53;;;3.37;;
142;SDS011;63667;49.046;8.468;2022-10-16T12:56:34;5.50;;;2.90;;
142;SDS011;63667;49.046;8.468;2022-10-16T13:04:50;4.83;;;3.13;;
142;SDS011;63667;49.046;8.468;2022-10-16T13:07:32;6.77;;;3.53;;
142;SDS011;63667;49.046;8.468;2022-10-16T13:18:19;9.23;;;3.30;;
142;SDS011;63667;49.046;8.468;2022-10-16T13:21:02;7.00;;;3.40;;
142;SDS011;63667;49.046;8.468;2022-10-16T13:23:46;4.97;;;3.10;;
142;SDS011;63667;49.046;8.468;2022-10-16T13:28:59;9.63;;;3.50;;
142;SDS011;63667;49.046;8.468;2022-10-16T13:31:27;4.83;;;3.37;;
142;SDS011;63667;49.046;8.468;2022-10-16T13:33:55;6.37;;;3.10;;
142;SDS011;63667;49.046;8.468;2022-10-16T13:36:25;18.27;;;3.40;;
142;SDS011;63667;49.046;8.468;2022-10-16T13:42:16;5.50;;;3.50;;
142;SDS011;63667;49.046;8.468;2022-10-16T13:44:52;8.77;;;3.67;;
142;SDS011;63667;49.046;8.468;2022-10-16T13:47:23;6.93;;;3.00;;
142;SDS011;63667;49.046;8.468;2022-10-16T13:52:32;6.07;;;3.40;;
142;SDS011;63667;49.046;8.468;2022-10-16T13:54:58;8.80;;;3.30;;
142;SDS011;63667;49.046;8.468;2022-10-16T13:57:24;4.80;;;3.50;;
142;SDS011;63667;49.046;8.468;2022-10-16T13:59:50;14.93;;;3.57;;
142;SDS011;63667;49.046;8.468;2022-10-16T14:02:27;8.07;;;3.37;;
142;SDS011;63667;49.046;8.468;2022-10-16T14:04:54;10.43;;;4.13;;
142;SDS011;63667;49.046;8.468;2022-10-16T14:07:25;6.10;;;3.37;;
142;SDS011;63667;49.046;8.468;2022-10-16T14:09:54;13.33;;;3.33;;
142;SDS011;63667;49.046;8.468;2022-10-16T14:12:21;11.13;;;3.37;;
142;SDS011;63667;49.046;8.468;2022-10-16T14:14:50;17.37;;;3.60;;
142;SDS011;63667;49.046;8.468;2022-10-16T14:17:25;16.47;;;5.17;;
142;SDS011;63667;49.046;8.468;2022-10-16T14:19:56;12.90;;;3.93;;
142;SDS011;63667;49.046;8.468;2022-10-16T14:22:34;10.13;;;3.80;;
142;SDS011;63667;49.046;8.468;2022-10-16T14:30:48;6.63;;;3.30;;
142;SDS011;63667;49.046;8.468;2022-10-16T14:38:27;8.23;;;3.63;;
142;SDS011;63667;49.046;8.468;2022-10-16T14:40:55;9.50;;;5.00;;
142;SDS011;63667;49.046;8.468;2022-10-16T14:43:44;15.03;;;4.37;;
142;SDS011;63667;49.046;8.468;2022-10-16T14:48:47;12.00;;;4.10;;
142;SDS011;63667;49.046;8.468;2022-10-16T14:51:16;15.87;;;4.00;;
142;SDS011;63667;49.046;8.468;2022-10-16T14:53:44;7.73;;;3.87;;
142;SDS011;63667;49.046;8.468;2022-10-16T14:56:17;10.00;;;3.67;;
142;SDS011;63667;49.046;8.468;2022-10-16T14:58:45;12.40;;;3.70;;
142;SDS011;63667;49.046;8.468;2022-10-16T15:01:12;19.50;;;3.50;;
142;SDS011;63667;49.046;8.468;2022-10-16T15:03:38;8.97;;;3.33;;
142;SDS011;63667;49.046;8.468;2022-10-16T15:06:09;13.43;;;3.53;;
142;SDS011;63667;49.046;8.468;2022-10-16T15:08:37;8.43;;;3.13;;
142;SDS011;63667;49.046;8.468;2022-10-16T15:11:04;6.90;;;3.37;;
142;SDS011;63667;49.046;8.468;2022-10-16T15:13:31;7.47;;;3.77;;
142;SDS011;63667;49.046;8.468;2022-10-16T15:15:58;5.10;;;3.47;;
142;SDS011;63667;49.046;8.468;2022-10-16T15:18:24;11.43;;;3.50;;
142;SDS011;63667;49.046;8.468;2022-10-16T15:20:51;6.83;;;3.90;;
142;SDS011;63667;49.046;8.468;2022-10-16T15:23:18;7.13;;;4.17;;
142;SDS011;63667;49.046;8.468;2022-10-16T15:25:48;8.83;;;3.97;;
142;SDS011;63667;49.046;8.468;2022-10-16T15:28:19;17.20;;;4.20;;
142;SDS011;63667;49.046;8.468;2022-10-16T15:30:48;9.33;;;3.83;;
142;SDS011;63667;49.046;8.468;2022-10-16T15:33:17;12.73;;;4.10;;
142;SDS011;63667;49.046;8.468;2022-10-16T15:35:48;10.23;;;4.77;;
142;SDS011;63667;49.046;8.468;2022-10-16T15:38:16;10.80;;;6.10;;
142;SDS011;63667;49.046;8.468;2022-10-16T15:40:43;17.03;;;7.20;;
142;SDS011;63667;49.046;8.468;2022-10-16T15:43:09;10.60;;;7.23;;
142;SDS011;63667;49.046;8.468;2022-10-16T15:45:37;10.33;;;5.77;;
142;SDS011;63667;49.046;8.468;2022-10-16T15:48:03;11.83;;;6.20;;
142;SDS011;63667;49.046;8.468;2022-10-16T15:50:30;15.23;;;6.70;;
142;SDS011;63667;49.046;8.468;2022-10-16T15:52:57;8.70;;;4.63;;
142;SDS011;63667;49.046;8.468;2022-10-16T15:55:23;9.47;;;4.97;;
142;SDS011;63667;49.046;8.468;2022-10-16T15:57:50;14.43;;;4.37;;
142;SDS011;63667;49.046;8.468;2022-10-16T16:00:17;4.67;;;4.20;;
142;SDS011;63667;49.046;8.468;2022-10-16T16:02:52;6.37;;;4.00;;
142;SDS011;63667;49.046;8.468;2022-10-16T16:05:20;10.20;;;4.33;;
142;SDS011;63667;49.046;8.468;2022-10-16T16:07:47;10.70;;;4.10;;
142;SDS011;63667;49.046;8.468;2022-10-16T16:10:14;11.73;;;4.83;;
142;SDS011;63667;49.046;8.468;2022-10-16T16:12:40;8.50;;;4.17;;
142;SDS011;63667;49.046;8.468;2022-10-16T16:15:07;8.67;;;4.33;;
142;SDS011;63667;49.046;8.468;2022-10-16T16:17:35;15.13;;;4.67;;
142;SDS011;63667;49.046;8.468;2022-10-16T16:20:02;14.63;;;4.30;;
142;SDS011;63667;49.046;8.468;2022-10-16T16:22:30;9.97;;;5.40;;
142;SDS011;63667;49.046;8.468;2022-10-16T16:24:56;8.47;;;5.37;;
142;SDS011;63667;49.046;8.468;2022-10-16T16:27:22;10.70;;;5.90;;
142;SDS011;63667;49.046;8.468;2022-10-16T16:29:50;7.67;;;4.53;;
142;SDS011;63667;49.046;8.468;2022-10-16T16:32:16;7.77;;;5.20;;
142;SDS011;63667;49.046;8.468;2022-10-16T16:34:42;7.83;;;4.90;;
142;SDS011;63667;49.046;8.468;2022-10-16T16:37:09;12.30;;;4.83;;
142;SDS011;63667;49.046;8.468;2022-10-16T16:39:35;10.43;;;5.10;;
142;SDS011;63667;49.046;8.468;2022-10-16T16:42:01;14.23;;;5.50;;
142;SDS011;63667;49.046;8.468;2022-10-16T16:44:29;13.53;;;5.40;;
142;SDS011;63667;49.046;8.468;2022-10-16T16:46:59;22.63;;;5.67;;
142;SDS011;63667;49.046;8.468;2022-10-16T16:49:25;8.17;;;5.03;;
142;SDS011;63667;49.046;8.468;2022-10-16T16:51:52;14.00;;;5.40;;
142;SDS011;63667;49.046;8.468;2022-10-16T16:54:18;24.23;;;6.43;;
142;SDS011;63667;49.046;8.468;2022-10-16T16:56:48;11.60;;;5.90;;
142;SDS011;63667;49.046;8.468;2022-10-16T16:59:15;12.43;;;5.47;;
142;SDS011;63667;49.046;8.468;2022-10-16T17:01:45;16.43;;;6.50;;
142;SDS011;63667;49.046;8.468;2022-10-16T17:04:13;20.40;;;9.27;;
142;SDS011;63667;49.046;8.468;2022-10-16T17:06:42;21.33;;;9.20;;
142;SDS011;63667;49.046;8.468;2022-10-16T17:09:10;17.27;;;8.70;;
142;SDS011;63667;49.046;8.468;2022-10-16T17:11:39;28.07;;;9.47;;
142;SDS011;63667;49.046;8.468;2022-10-16T17:14:09;18.20;;;8.47;;
142;SDS011;63667;49.046;8.468;2022-10-16T17:16:36;13.80;;;8.17;;
142;SDS011;63667;49.046;8.468;2022-10-16T17:19:07;25.27;;;9.27;;
142;SDS011;63667;49.046;8.468;2022-10-16T17:21:36;26.03;;;8.63;;
142;SDS011;63667;49.046;8.468;2022-10-16T17:24:06;22.03;;;8.60;;
142;SDS011;63667;49.046;8.468;2022-10-16T17:26:33;19.40;;;7.37;;
142;SDS011;63667;49.046;8.468;2022-10-16T17:29:03;13.10;;;7.60;;
142;SDS011;63667;49.046;8.468;2022-10-16T17:31:30;17.00;;;6.80;;
142;SDS011;63667;49.046;8.468;2022-10-16T17:33:58;14.80;;;6.70;;
142;SDS011;63667;49.046;8.468;2022-10-16T17:36:26;12.00;;;5.83;;
142;SDS011;63667;49.046;8.468;2022-10-16T17:38:59;14.03;;;6.27;;
142;SDS011;63667;49.046;8.468;2022-10-16T17:41:29;12.67;;;6.40;;
142;SDS011;63667;49.046;8.468;2022-10-16T17:43:56;11.53;;;6.37;;
142;SDS011;63667;49.046;8.468;2022-10-16T17:46:22;9.73;;;6.03;;
142;SDS011;63667;49.046;8.468;2022-10-16T17:48:50;10.27;;;6.10;;
142;SDS011;63667;49.046;8.468;2022-10-16T17:51:20;12.60;;;6.03;;
142;SDS011;63667;49.046;8.468;2022-10-16T17:53:52;8.80;;;6.47;;
142;SDS011;63667;49.046;8.468;2022-10-16T17:56:21;24.93;;;8.10;;
142;SDS011;63667;49.046;8.468;2022-10-16T17:58:49;13.13;;;8.43;;
142;SDS011;63667;49.046;8.468;2022-10-16T18:01:17;17.63;;;8.80;;
142;SDS011;63667;49.046;8.468;2022-10-16T18:03:49;17.33;;;8.17;;